Time;durP1;ratioP1;P1;durP2;ratioP2;P2;SDS_P1;SDS_P2;PMS_P1;PMS_P2;Temp;Humidity;BMP_temperature;BMP_pressure;BME280_temperature;BME280_humidity;BME280_pressure;Samples;Min_cycle;Max_cycle;Signal;HPM_P1;HPM_P2
2022/02/07 00:00:05;;;;;;;6.40;0.60;;;;;;;;;;5046927;28;20197;-72
2022/02/07 00:02:50;;;;;;;15.17;1.30;;;;;;;;;;5039387;28;20727;-71
2022/02/07 00:05:17;;;;;;;12.57;1.10;;;;;;;;;;5047017;28;20268;-72
2022/02/07 00:07:42;;;;;;;10.93;1.30;;;;;;;;;;5046846;28;20562;-72
2022/02/07 00:10:08;;;;;;;7.27;1.20;;;;;;;;;;5050560;28;20200;-71
2022/02/07 00:12:34;;;;;;;7.07;0.93;;;;;;;;;;5045566;28;20201;-70
2022/02/07 00:14:59;;;;;;;6.40;0.80;;;;;;;;;;5050387;28;20201;-70
2022/02/07 00:17:24;;;;;;;16.90;1.20;;;;;;;;;;5047061;28;20189;-69
2022/02/07 00:19:50;;;;;;;6.63;1.10;;;;;;;;;;5047727;28;20262;-69
2022/02/07 00:22:15;;;;;;;8.10;1.03;;;;;;;;;;5052139;28;20193;-69
2022/02/07 00:24:40;;;;;;;9.33;0.90;;;;;;;;;;5047050;28;20181;-70
2022/02/07 00:27:06;;;;;;;13.17;1.10;;;;;;;;;;5046977;28;20196;-70
2022/02/07 00:29:31;;;;;;;10.77;1.17;;;;;;;;;;5049022;28;20190;-71
2022/02/07 00:31:56;;;;;;;17.10;1.40;;;;;;;;;;5041955;28;20211;-70
2022/02/07 00:34:22;;;;;;;9.87;1.20;;;;;;;;;;5049880;28;20263;-70
2022/02/07 00:36:47;;;;;;;15.43;1.80;;;;;;;;;;5042767;28;20201;-70
2022/02/07 00:39:20;;;;;;;14.77;1.43;;;;;;;;;;5048865;28;20204;-70
2022/02/07 00:41:52;;;;;;;8.40;1.53;;;;;;;;;;5039931;28;20186;-69
2022/02/07 00:44:19;;;;;;;10.07;1.30;;;;;;;;;;5048715;28;20181;-70
2022/02/07 00:46:58;;;;;;;8.73;1.07;;;;;;;;;;5044630;28;20189;-70
2022/02/07 00:49:23;;;;;;;4.23;0.53;;;;;;;;;;5051479;28;20185;-70
2022/02/07 00:51:49;;;;;;;8.50;0.70;;;;;;;;;;5043687;28;20219;-70
2022/02/07 00:54:15;;;;;;;16.13;1.33;;;;;;;;;;5048746;28;20259;-69
2022/02/07 00:56:41;;;;;;;5.80;1.47;;;;;;;;;;5044971;28;20205;-68
2022/02/07 00:59:07;;;;;;;11.53;1.50;;;;;;;;;;5046657;28;20205;-69
2022/02/07 01:01:32;;;;;;;17.97;1.47;;;;;;;;;;5048182;28;20283;-69
2022/02/07 01:03:58;;;;;;;7.87;1.10;;;;;;;;;;5045014;28;20231;-69
2022/02/07 01:06:23;;;;;;;8.33;1.10;;;;;;;;;;5043545;28;20192;-69
2022/02/07 01:08:53;;;;;;;11.10;1.27;;;;;;;;;;5044133;28;20629;-68
2022/02/07 01:11:44;;;;;;;8.57;1.03;;;;;;;;;;5044686;28;20194;-69
2022/02/07 01:14:23;;;;;;;10.10;1.10;;;;;;;;;;5045477;28;20284;-68
2022/02/07 01:46:06;;;;;;;13.67;2.07;;;;;;;;;;5043669;28;20209;-69
2022/02/07 01:52:17;;;;;;;17.00;1.77;;;;;;;;;;5031879;28;20672;-69
2022/02/07 01:54:48;;;;;;;7.50;0.87;;;;;;;;;;5045470;28;20198;-69
2022/02/07 01:57:14;;;;;;;10.97;1.53;;;;;;;;;;5041892;28;20185;-69
2022/02/07 01:59:40;;;;;;;11.27;2.17;;;;;;;;;;5048717;28;20564;-69
2022/02/07 02:02:07;;;;;;;14.97;1.17;;;;;;;;;;5040773;28;20701;-69
2022/02/07 02:04:32;;;;;;;6.37;0.93;;;;;;;;;;5042435;28;20656;-70
2022/02/07 02:06:58;;;;;;;4.50;0.70;;;;;;;;;;5042766;28;20173;-71
2022/02/07 02:09:27;;;;;;;2.27;0.40;;;;;;;;;;5032301;28;20185;-71
2022/02/07 02:11:53;;;;;;;7.13;0.70;;;;;;;;;;5041722;28;20181;-71
2022/02/07 02:34:03;;;;;;;7.37;0.67;;;;;;;;;;5053816;28;20198;-69
2022/02/07 02:47:05;;;;;;;7.23;1.63;;;;;;;;;;5042164;28;20209;-69
2022/02/07 02:49:42;;;;;;;14.47;1.33;;;;;;;;;;5046705;28;20629;-69
2022/02/07 02:52:08;;;;;;;7.07;0.90;;;;;;;;;;5043082;28;20181;-70
2022/02/07 02:54:33;;;;;;;10.80;1.43;;;;;;;;;;5046412;28;20575;-70
2022/02/07 02:56:58;;;;;;;13.47;1.20;;;;;;;;;;5042407;28;20676;-69
2022/02/07 02:59:24;;;;;;;7.50;1.50;;;;;;;;;;5058352;28;20636;-68
2022/02/07 03:01:49;;;;;;;9.27;1.70;;;;;;;;;;5042207;28;20619;-69
2022/02/07 03:04:14;;;;;;;13.87;1.63;;;;;;;;;;5045009;28;20182;-69
2022/02/07 03:06:40;;;;;;;6.90;0.97;;;;;;;;;;5042211;28;20273;-69
2022/02/07 03:09:13;;;;;;;8.63;1.17;;;;;;;;;;5047845;28;20177;-69
2022/02/07 03:11:39;;;;;;;11.37;1.53;;;;;;;;;;5039832;28;20196;-68
2022/02/07 03:14:05;;;;;;;12.73;1.20;;;;;;;;;;5047400;28;20185;-68
2022/02/07 03:16:40;;;;;;;9.07;1.07;;;;;;;;;;5041381;28;20590;-69
2022/02/07 03:19:06;;;;;;;7.43;1.40;;;;;;;;;;5046492;28;20264;-68
2022/02/07 03:21:32;;;;;;;9.43;1.13;;;;;;;;;;5041547;28;20274;-69
2022/02/07 03:23:57;;;;;;;11.33;1.70;;;;;;;;;;5047562;28;20216;-69
2022/02/07 03:26:23;;;;;;;13.27;1.20;;;;;;;;;;5043844;28;20398;-69
2022/02/07 03:28:49;;;;;;;17.00;1.70;;;;;;;;;;5049673;28;20194;-68
2022/02/07 03:31:19;;;;;;;18.83;2.63;;;;;;;;;;5041178;28;20197;-67
2022/02/07 03:33:45;;;;;;;14.47;1.50;;;;;;;;;;5046320;28;20566;-68
2022/02/07 03:36:13;;;;;;;15.30;1.70;;;;;;;;;;5040757;28;20209;-68
2022/02/07 03:38:38;;;;;;;15.57;1.90;;;;;;;;;;5055760;28;20194;-69
2022/02/07 03:41:04;;;;;;;10.57;1.57;;;;;;;;;;5046328;28;20186;-69
2022/02/07 03:43:29;;;;;;;11.27;1.57;;;;;;;;;;5042176;28;20181;-69
2022/02/07 03:45:55;;;;;;;14.47;2.33;;;;;;;;;;5041053;28;20180;-69
2022/02/07 03:48:20;;;;;;;7.90;1.13;;;;;;;;;;5042796;28;20193;-69
2022/02/07 03:50:46;;;;;;;11.80;1.30;;;;;;;;;;5045569;28;20185;-68
2022/02/07 03:53:12;;;;;;;10.60;1.53;;;;;;;;;;5038903;28;20265;-69
2022/02/07 03:55:39;;;;;;;10.30;1.50;;;;;;;;;;5044452;28;20205;-69
2022/02/07 03:58:05;;;;;;;4.73;1.00;;;;;;;;;;5045273;28;20284;-69
2022/02/07 04:00:32;;;;;;;11.40;1.47;;;;;;;;;;5043809;28;20197;-68
2022/02/07 04:03:02;;;;;;;8.90;1.10;;;;;;;;;;5041008;28;20225;-68
2022/02/07 04:05:45;;;;;;;9.67;2.60;;;;;;;;;;5045434;28;20495;-69
2022/02/07 04:08:12;;;;;;;12.03;1.40;;;;;;;;;;5043488;28;20191;-68
2022/02/07 04:10:51;;;;;;;17.00;1.40;;;;;;;;;;5045193;28;20554;-69
2022/02/07 04:13:18;;;;;;;11.27;1.20;;;;;;;;;;5041529;28;20196;-69
2022/02/07 04:15:44;;;;;;;9.63;1.30;;;;;;;;;;5047400;28;20676;-69
2022/02/07 04:18:13;;;;;;;12.67;1.40;;;;;;;;;;5044269;28;20243;-69
2022/02/07 04:20:39;;;;;;;11.17;1.67;;;;;;;;;;5047055;28;20193;-69
2022/02/07 04:23:04;;;;;;;15.07;1.50;;;;;;;;;;5041981;28;20569;-69
2022/02/07 04:25:30;;;;;;;15.90;2.03;;;;;;;;;;5042558;28;20224;-69
2022/02/07 04:27:55;;;;;;;6.33;1.10;;;;;;;;;;5046311;28;20221;-68
2022/02/07 04:30:20;;;;;;;10.53;1.27;;;;;;;;;;5042336;28;20206;-68
2022/02/07 04:32:46;;;;;;;18.60;1.80;;;;;;;;;;5042918;28;20214;-69
2022/02/07 04:35:11;;;;;;;17.17;2.10;;;;;;;;;;5044872;28;20262;-68
2022/02/07 04:37:37;;;;;;;11.63;1.67;;;;;;;;;;5045649;28;20178;-69
2022/02/07 04:40:03;;;;;;;15.33;1.97;;;;;;;;;;5053099;28;20212;-68
2022/02/07 04:42:28;;;;;;;16.00;2.13;;;;;;;;;;5048684;28;20176;-69
2022/02/07 04:47:46;;;;;;;16.30;2.20;;;;;;;;;;5051621;28;20223;-68
2022/02/07 04:55:43;;;;;;;18.23;1.80;;;;;;;;;;5042257;28;20692;-68
2022/02/07 05:03:51;;;;;;;17.43;3.10;;;;;;;;;;5041672;28;20732;-68
2022/02/07 05:14:33;;;;;;;26.53;2.00;;;;;;;;;;5044159;28;20213;-68
2022/02/07 05:16:59;;;;;;;24.57;3.30;;;;;;;;;;5046358;28;20205;-68
2022/02/07 05:19:25;;;;;;;15.73;2.90;;;;;;;;;;5046341;28;20200;-69
2022/02/07 05:21:50;;;;;;;17.30;2.23;;;;;;;;;;5043382;28;20185;-68
2022/02/07 05:24:16;;;;;;;15.70;2.67;;;;;;;;;;5040336;28;20227;-69
2022/02/07 05:26:41;;;;;;;21.27;2.47;;;;;;;;;;5045761;28;20750;-68
2022/02/07 05:29:07;;;;;;;14.47;2.83;;;;;;;;;;5042872;28;20763;-68
2022/02/07 05:31:33;;;;;;;13.07;2.40;;;;;;;;;;5043112;28;20209;-68
2022/02/07 05:34:02;;;;;;;12.83;1.90;;;;;;;;;;5045741;28;20280;-68
2022/02/07 05:36:28;;;;;;;20.93;2.13;;;;;;;;;;5044962;28;20229;-68
2022/02/07 05:38:57;;;;;;;15.33;2.10;;;;;;;;;;5056002;28;20228;-69
2022/02/07 05:41:22;;;;;;;19.20;2.20;;;;;;;;;;5043951;28;20213;-68
2022/02/07 05:43:50;;;;;;;11.03;2.60;;;;;;;;;;5046417;28;20251;-69
2022/02/07 05:46:16;;;;;;;23.33;2.90;;;;;;;;;;5044352;28;20267;-68
2022/02/07 05:48:42;;;;;;;22.80;2.43;;;;;;;;;;5052078;28;20677;-68
2022/02/07 05:51:07;;;;;;;16.97;2.20;;;;;;;;;;5044523;28;20184;-69
2022/02/07 05:53:32;;;;;;;23.57;3.53;;;;;;;;;;5041542;28;20189;-68
2022/02/07 05:55:58;;;;;;;15.30;2.30;;;;;;;;;;5043980;28;20257;-69
2022/02/07 05:58:24;;;;;;;16.43;2.80;;;;;;;;;;5045462;28;20231;-69
2022/02/07 06:00:51;;;;;;;20.57;2.80;;;;;;;;;;5049009;28;20192;-69
2022/02/07 06:03:17;;;;;;;20.77;2.73;;;;;;;;;;5043691;28;20224;-69
2022/02/07 06:05:43;;;;;;;20.17;2.87;;;;;;;;;;5043178;28;20213;-69
2022/02/07 06:08:08;;;;;;;21.93;3.03;;;;;;;;;;5042275;28;20192;-69
2022/02/07 06:10:34;;;;;;;27.13;3.40;;;;;;;;;;5043785;28;20181;-68
2022/02/07 06:12:59;;;;;;;11.90;1.73;;;;;;;;;;5040487;28;20190;-69
2022/02/07 06:15:24;;;;;;;21.30;3.63;;;;;;;;;;5045307;28;20613;-68
2022/02/07 06:17:54;;;;;;;22.70;2.50;;;;;;;;;;5041581;28;20212;-68
2022/02/07 06:20:19;;;;;;;18.93;3.13;;;;;;;;;;5041854;28;20204;-68
2022/02/07 06:22:48;;;;;;;22.13;2.43;;;;;;;;;;5041936;28;20615;-68
2022/02/07 06:25:14;;;;;;;17.00;2.33;;;;;;;;;;5052114;28;20577;-68
2022/02/07 06:27:40;;;;;;;22.50;2.57;;;;;;;;;;5043234;28;20648;-69
2022/02/07 06:30:06;;;;;;;17.37;2.40;;;;;;;;;;5042315;28;20177;-68
2022/02/07 06:32:31;;;;;;;21.67;2.60;;;;;;;;;;5034322;28;20218;-69
2022/02/07 06:34:56;;;;;;;21.13;2.30;;;;;;;;;;5038326;28;20715;-69
2022/02/07 06:37:22;;;;;;;21.40;2.60;;;;;;;;;;5043223;28;20201;-68
2022/02/07 06:39:47;;;;;;;23.90;3.07;;;;;;;;;;5048484;28;20257;-69
2022/02/07 06:42:12;;;;;;;21.70;2.40;;;;;;;;;;5041119;28;20182;-68
2022/02/07 06:44:38;;;;;;;14.37;2.10;;;;;;;;;;5037756;28;20664;-69
2022/02/07 06:47:03;;;;;;;8.80;1.90;;;;;;;;;;5043871;28;20242;-72
2022/02/07 06:49:29;;;;;;;11.27;1.50;;;;;;;;;;5045458;28;20376;-74
2022/02/07 06:51:54;;;;;;;17.70;1.37;;;;;;;;;;5047456;28;20184;-76
2022/02/07 06:54:19;;;;;;;9.47;1.53;;;;;;;;;;5043573;28;20316;-75
2022/02/07 06:56:46;;;;;;;10.43;1.90;;;;;;;;;;5047917;28;20205;-73
2022/02/07 06:59:16;;;;;;;17.77;1.97;;;;;;;;;;5047273;28;20609;-73
2022/02/07 07:01:41;;;;;;;14.10;2.00;;;;;;;;;;5049026;28;20220;-73
2022/02/07 07:04:07;;;;;;;24.37;2.90;;;;;;;;;;5042717;28;20197;-72
2022/02/07 07:06:33;;;;;;;23.53;3.23;;;;;;;;;;5050069;28;20256;-72
2022/02/07 07:08:58;;;;;;;18.20;2.40;;;;;;;;;;5046332;28;20181;-72
2022/02/07 07:11:24;;;;;;;22.43;2.77;;;;;;;;;;5049096;28;20528;-71
2022/02/07 07:14:02;;;;;;;18.27;2.40;;;;;;;;;;5044560;28;20193;-71
2022/02/07 07:19:03;;;;;;;29.80;2.97;;;;;;;;;;5043380;28;20591;-71
2022/02/07 07:21:29;;;;;;;17.93;2.47;;;;;;;;;;5053291;28;20272;-71
2022/02/07 07:23:54;;;;;;;18.60;2.30;;;;;;;;;;5042452;28;20312;-71
2022/02/07 07:26:23;;;;;;;24.80;3.63;;;;;;;;;;5041936;28;20656;-70
2022/02/07 07:28:49;;;;;;;20.70;3.10;;;;;;;;;;5043716;28;20188;-70
2022/02/07 07:31:15;;;;;;;17.70;2.70;;;;;;;;;;5043575;28;20201;-70
2022/02/07 07:33:43;;;;;;;19.93;2.67;;;;;;;;;;5035358;28;20641;-70
2022/02/07 07:36:09;;;;;;;22.10;2.73;;;;;;;;;;5035861;28;20201;-69
2022/02/07 07:38:34;;;;;;;14.10;2.50;;;;;;;;;;5054507;28;20573;-70
2022/02/07 07:40:59;;;;;;;15.17;2.03;;;;;;;;;;5037978;28;20193;-70
2022/02/07 07:43:25;;;;;;;14.67;2.20;;;;;;;;;;5045239;28;20185;-70
2022/02/07 07:46:01;;;;;;;22.03;2.67;;;;;;;;;;5040426;28;20182;-70
2022/02/07 07:48:28;;;;;;;27.67;2.87;;;;;;;;;;5060093;28;20255;-69
2022/02/07 07:51:43;;;;;;;18.30;2.20;;;;;;;;;;5042520;28;20302;-69
2022/02/07 07:53:58;;;;;;;18.07;2.33;;;;;;;;;;5057897;28;20188;-69
2022/02/07 08:02:00;;;;;;;12.70;1.80;;;;;;;;;;5054052;28;20318;-69
2022/02/07 08:04:30;;;;;;;21.20;2.73;;;;;;;;;;5053852;28;20189;-69
2022/02/07 08:07:05;;;;;;;15.83;1.80;;;;;;;;;;5060424;28;20259;-69
2022/02/07 08:12:02;;;;;;;17.17;1.97;;;;;;;;;;5052388;28;21285;-67
2022/02/07 08:14:34;;;;;;;20.67;1.87;;;;;;;;;;5047141;28;20239;-69
2022/02/07 08:16:59;;;;;;;13.90;1.97;;;;;;;;;;5056318;28;20208;-68
2022/02/07 08:19:26;;;;;;;20.77;2.00;;;;;;;;;;5049732;28;20180;-68
2022/02/07 08:21:52;;;;;;;15.70;2.50;;;;;;;;;;5052856;28;20181;-68
2022/02/07 08:24:17;;;;;;;21.73;2.37;;;;;;;;;;5046249;28;20780;-68
2022/02/07 08:26:42;;;;;;;14.90;2.23;;;;;;;;;;5056904;28;20174;-68
2022/02/07 08:29:08;;;;;;;23.03;1.80;;;;;;;;;;5052117;28;20246;-68
2022/02/07 08:31:33;;;;;;;21.57;2.40;;;;;;;;;;5049443;28;20711;-68
2022/02/07 08:33:59;;;;;;;19.40;2.33;;;;;;;;;;5050078;28;20255;-68
2022/02/07 08:36:24;;;;;;;25.20;2.70;;;;;;;;;;5048495;28;20205;-68
2022/02/07 08:38:49;;;;;;;13.70;1.87;;;;;;;;;;5050702;28;20174;-68
2022/02/07 08:41:15;;;;;;;16.17;1.90;;;;;;;;;;5048109;28;20189;-69
2022/02/07 08:43:40;;;;;;;20.07;2.47;;;;;;;;;;5047890;28;20671;-68
2022/02/07 08:46:06;;;;;;;19.10;3.17;;;;;;;;;;5046229;28;20182;-68
2022/02/07 08:48:32;;;;;;;18.30;2.10;;;;;;;;;;5047838;28;20219;-69
2022/02/07 08:50:57;;;;;;;16.17;2.23;;;;;;;;;;5046020;28;20186;-69
2022/02/07 08:53:26;;;;;;;24.47;2.67;;;;;;;;;;5046752;28;20217;-69
2022/02/07 08:55:52;;;;;;;18.20;2.20;;;;;;;;;;5046763;28;20267;-69
2022/02/07 08:58:22;;;;;;;21.13;3.00;;;;;;;;;;5043604;28;20189;-69
2022/02/07 09:03:22;;;;;;;14.33;2.13;;;;;;;;;;5044947;28;20252;-69
2022/02/07 09:06:09;;;;;;;20.50;2.90;;;;;;;;;;5038365;28;20460;-69
2022/02/07 09:11:07;;;;;;;14.60;3.10;;;;;;;;;;5039596;28;20198;-68
2022/02/07 09:13:34;;;;;;;10.07;1.43;;;;;;;;;;5047006;28;20204;-68
2022/02/07 09:18:25;;;;;;;17.87;2.60;;;;;;;;;;5045220;28;20213;-68
2022/02/07 09:20:51;;;;;;;23.97;3.10;;;;;;;;;;5050977;28;20217;-69
2022/02/07 09:23:16;;;;;;;31.57;3.33;;;;;;;;;;5041212;28;20546;-68
2022/02/07 09:25:42;;;;;;;14.33;2.20;;;;;;;;;;5042053;28;20205;-68
2022/02/07 09:28:08;;;;;;;21.00;2.80;;;;;;;;;;5045509;28;20169;-68
2022/02/07 09:30:33;;;;;;;17.70;2.13;;;;;;;;;;5045262;28;20209;-68
2022/02/07 09:32:58;;;;;;;18.20;2.20;;;;;;;;;;5048064;28;20173;-68
2022/02/07 09:35:24;;;;;;;19.70;2.40;;;;;;;;;;5046636;28;20803;-68
2022/02/07 09:37:49;;;;;;;19.90;2.67;;;;;;;;;;5051654;28;20635;-68
2022/02/07 09:40:15;;;;;;;23.70;2.87;;;;;;;;;;5048656;28;20182;-68
2022/02/07 09:42:46;;;;;;;19.97;2.07;;;;;;;;;;5047778;28;20788;-69
2022/02/07 09:45:29;;;;;;;16.33;2.37;;;;;;;;;;5043704;28;20593;-68
2022/02/07 09:47:56;;;;;;;10.60;2.13;;;;;;;;;;5048597;28;20189;-69
2022/02/07 09:50:21;;;;;;;22.43;2.70;;;;;;;;;;5047072;28;20678;-68
2022/02/07 09:52:47;;;;;;;19.63;2.47;;;;;;;;;;5047854;28;20193;-68
2022/02/07 09:55:12;;;;;;;14.97;2.40;;;;;;;;;;5049357;28;20185;-68
2022/02/07 09:57:38;;;;;;;19.67;2.60;;;;;;;;;;5046633;28;20186;-68
2022/02/07 10:00:07;;;;;;;19.13;2.63;;;;;;;;;;5049670;28;20239;-68
2022/02/07 10:02:45;;;;;;;16.53;2.30;;;;;;;;;;5045433;28;20216;-68
2022/02/07 10:05:21;;;;;;;18.80;2.83;;;;;;;;;;5051580;28;20173;-68
2022/02/07 10:13:16;;;;;;;12.63;2.63;;;;;;;;;;5043432;28;20227;-68
2022/02/07 10:15:51;;;;;;;24.70;3.00;;;;;;;;;;5045703;28;20209;-69
2022/02/07 10:34:37;;;;;;;19.90;3.07;;;;;;;;;;5046177;28;20663;-69
2022/02/07 10:39:49;;;;;;;16.93;2.40;;;;;;;;;;5047229;28;21076;-68
2022/02/07 10:45:00;;;;;;;24.73;2.43;;;;;;;;;;5048501;28;20189;-68
2022/02/07 10:47:41;;;;;;;18.60;2.63;;;;;;;;;;5052735;28;20223;-68
2022/02/07 10:50:16;;;;;;;16.67;2.50;;;;;;;;;;5044043;28;20673;-69
2022/02/07 10:53:00;;;;;;;15.80;2.07;;;;;;;;;;5054802;28;20629;-68
2022/02/07 10:55:35;;;;;;;14.80;2.10;;;;;;;;;;5046307;28;20196;-68
2022/02/07 10:58:04;;;;;;;25.53;3.23;;;;;;;;;;5053873;28;20257;-68
2022/02/07 11:05:28;;;;;;;22.97;2.63;;;;;;;;;;5050027;28;20184;-68
2022/02/07 11:08:06;;;;;;;14.60;2.47;;;;;;;;;;5043875;28;20553;-68
2022/02/07 11:11:04;;;;;;;22.63;2.27;;;;;;;;;;5046863;28;20177;-69
2022/02/07 11:16:23;;;;;;;14.60;2.57;;;;;;;;;;5049316;28;20216;-68
2022/02/07 11:19:28;;;;;;;18.83;2.60;;;;;;;;;;5049161;28;20269;-68
2022/02/07 11:22:08;;;;;;;21.47;2.60;;;;;;;;;;5045681;28;20686;-68
2022/02/07 11:27:39;;;;;;;19.27;2.30;;;;;;;;;;5044315;28;20192;-68
2022/02/07 11:30:13;;;;;;;21.37;2.50;;;;;;;;;;5052746;28;20260;-68
2022/02/07 11:32:49;;;;;;;12.37;2.20;;;;;;;;;;5045248;28;20267;-68
2022/02/07 11:35:17;;;;;;;17.67;1.83;;;;;;;;;;5052948;28;20193;-68
2022/02/07 11:37:49;;;;;;;7.30;1.83;;;;;;;;;;5044783;28;20189;-68
2022/02/07 11:40:55;;;;;;;15.63;2.13;;;;;;;;;;5049567;28;20196;-68
2022/02/07 11:43:24;;;;;;;16.40;2.30;;;;;;;;;;5040694;28;20247;-68
2022/02/07 11:45:53;;;;;;;13.70;2.10;;;;;;;;;;5043864;28;20717;-68
2022/02/07 11:48:22;;;;;;;18.50;2.40;;;;;;;;;;5055228;28;20213;-68
2022/02/07 11:50:47;;;;;;;21.87;2.37;;;;;;;;;;5048818;28;20192;-68
2022/02/07 11:53:15;;;;;;;15.83;2.23;;;;;;;;;;5051593;28;20188;-68
2022/02/07 11:55:43;;;;;;;11.57;2.13;;;;;;;;;;5051880;28;20200;-67
2022/02/07 11:58:14;;;;;;;17.60;2.83;;;;;;;;;;5053393;28;20212;-67
2022/02/07 12:00:55;;;;;;;14.57;1.93;;;;;;;;;;5046682;28;20178;-67
2022/02/07 12:03:22;;;;;;;16.53;2.73;;;;;;;;;;5049281;28;20324;-67
2022/02/07 12:05:51;;;;;;;15.70;2.70;;;;;;;;;;5045159;28;20564;-70
2022/02/07 12:08:19;;;;;;;14.60;2.30;;;;;;;;;;5046549;28;20578;-67
2022/02/07 12:11:07;;;;;;;20.80;2.40;;;;;;;;;;5046732;28;20189;-67
2022/02/07 12:13:34;;;;;;;12.73;1.73;;;;;;;;;;5046762;28;20217;-67
2022/02/07 12:16:16;;;;;;;12.10;1.73;;;;;;;;;;5046472;28;20213;-67
2022/02/07 12:18:46;;;;;;;11.70;2.43;;;;;;;;;;5043246;28;20192;-68
2022/02/07 12:21:29;;;;;;;15.17;2.40;;;;;;;;;;5045440;28;20237;-68
2022/02/07 12:24:01;;;;;;;12.67;2.07;;;;;;;;;;5044977;28;20265;-68
2022/02/07 12:26:28;;;;;;;16.63;2.13;;;;;;;;;;5044034;28;20181;-67
2022/02/07 12:29:00;;;;;;;16.67;2.30;;;;;;;;;;5049801;28;20185;-68
2022/02/07 12:31:27;;;;;;;19.57;2.03;;;;;;;;;;5043953;28;20271;-67
2022/02/07 12:33:58;;;;;;;17.70;2.07;;;;;;;;;;5047579;28;20197;-67
2022/02/07 12:36:26;;;;;;;17.92;2.05;;;;;;;;;;5044324;28;20256;-67
2022/02/07 12:38:52;;;;;;;19.07;2.10;;;;;;;;;;5049980;28;20189;-68
2022/02/07 12:41:18;;;;;;;12.83;2.17;;;;;;;;;;5040812;28;20194;-68
2022/02/07 12:43:45;;;;;;;19.40;1.70;;;;;;;;;;5049396;28;20328;-68
2022/02/07 12:46:13;;;;;;;21.03;2.03;;;;;;;;;;5042369;28;20182;-68
2022/02/07 12:48:49;;;;;;;12.73;1.70;;;;;;;;;;5045947;28;20676;-67
2022/02/07 12:51:15;;;;;;;14.97;2.07;;;;;;;;;;5043382;28;20178;-68
2022/02/07 12:53:40;;;;;;;13.73;1.93;;;;;;;;;;5045305;28;20929;-68
2022/02/07 12:56:07;;;;;;;9.90;1.20;;;;;;;;;;5049579;28;20205;-68
2022/02/07 12:58:42;;;;;;;15.37;1.80;;;;;;;;;;5045106;28;20204;-68
2022/02/07 13:01:17;;;;;;;10.77;1.50;;;;;;;;;;5042405;28;20182;-67
2022/02/07 13:04:07;;;;;;;17.50;1.83;;;;;;;;;;5046701;28;20721;-67
2022/02/07 13:06:37;;;;;;;16.43;1.73;;;;;;;;;;5043894;28;20556;-67
2022/02/07 13:09:18;;;;;;;10.80;1.73;;;;;;;;;;5048122;28;20265;-68
2022/02/07 13:11:48;;;;;;;15.40;2.37;;;;;;;;;;5041727;28;20189;-68
2022/02/07 13:14:15;;;;;;;12.07;1.30;;;;;;;;;;5050066;28;20447;-67
2022/02/07 13:16:41;;;;;;;7.43;1.57;;;;;;;;;;5044096;28;20197;-68
2022/02/07 13:19:14;;;;;;;15.80;1.57;;;;;;;;;;5047442;28;20556;-68
2022/02/07 13:21:44;;;;;;;19.03;2.90;;;;;;;;;;5044571;28;20192;-67
2022/02/07 13:24:14;;;;;;;13.63;2.23;;;;;;;;;;5047998;28;20185;-67
2022/02/07 13:26:44;;;;;;;13.70;2.00;;;;;;;;;;5046431;28;20182;-67
2022/02/07 13:29:15;;;;;;;24.77;2.23;;;;;;;;;;5049232;28;20286;-68
2022/02/07 13:31:40;;;;;;;13.90;1.40;;;;;;;;;;5047769;28;20766;-67
2022/02/07 13:34:21;;;;;;;9.37;1.40;;;;;;;;;;5046093;28;20272;-67
2022/02/07 13:36:49;;;;;;;16.73;1.73;;;;;;;;;;5047601;28;20228;-67
2022/02/07 13:39:17;;;;;;;14.00;1.67;;;;;;;;;;5053434;28;20193;-68
2022/02/07 13:41:42;;;;;;;18.37;2.27;;;;;;;;;;5059583;28;20203;-68
2022/02/07 13:44:08;;;;;;;10.03;1.83;;;;;;;;;;5046223;28;20661;-67
2022/02/07 13:46:34;;;;;;;9.23;1.80;;;;;;;;;;5056111;28;20244;-68
2022/02/07 13:49:01;;;;;;;13.20;1.60;;;;;;;;;;5045536;28;20180;-67
2022/02/07 13:51:30;;;;;;;9.80;1.53;;;;;;;;;;5053491;28;20185;-67
2022/02/07 13:53:57;;;;;;;13.43;1.43;;;;;;;;;;5048466;28;20189;-68
2022/02/07 13:56:32;;;;;;;12.60;1.63;;;;;;;;;;5053109;28;20259;-68
2022/02/07 13:59:15;;;;;;;8.63;1.10;;;;;;;;;;5046677;28;20218;-68
2022/02/07 14:01:42;;;;;;;12.33;1.67;;;;;;;;;;5054021;28;20548;-68
2022/02/07 14:04:19;;;;;;;13.23;2.17;;;;;;;;;;5052245;28;20272;-68
2022/02/07 14:07:05;;;;;;;20.47;2.27;;;;;;;;;;5049761;28;20460;-67
2022/02/07 14:09:31;;;;;;;10.13;1.67;;;;;;;;;;5055024;28;20546;-67
2022/02/07 14:11:59;;;;;;;16.07;2.17;;;;;;;;;;5047724;28;20207;-67
2022/02/07 14:14:26;;;;;;;12.37;1.40;;;;;;;;;;5056654;28;20180;-67
2022/02/07 14:16:51;;;;;;;15.20;1.57;;;;;;;;;;5044202;28;20616;-67
2022/02/07 14:19:38;;;;;;;15.63;1.57;;;;;;;;;;5052366;28;20200;-67
2022/02/07 14:22:03;;;;;;;9.57;1.60;;;;;;;;;;5050250;28;20177;-67
2022/02/07 14:24:29;;;;;;;13.20;1.93;;;;;;;;;;5052031;28;20187;-67
2022/02/07 14:26:54;;;;;;;14.63;1.93;;;;;;;;;;5043205;28;20193;-67
2022/02/07 14:29:19;;;;;;;8.90;1.37;;;;;;;;;;5045671;28;20197;-67
2022/02/07 14:31:45;;;;;;;17.27;1.80;;;;;;;;;;5045338;28;20232;-67
2022/02/07 14:34:10;;;;;;;15.03;1.63;;;;;;;;;;5045287;28;20272;-67
2022/02/07 14:36:36;;;;;;;15.73;1.83;;;;;;;;;;5048380;28;20250;-67
2022/02/07 14:39:03;;;;;;;9.20;1.77;;;;;;;;;;5045498;28;20640;-68
2022/02/07 14:41:30;;;;;;;12.07;2.57;;;;;;;;;;5054746;28;20263;-68
2022/02/07 14:44:00;;;;;;;18.03;2.70;;;;;;;;;;5039749;28;20654;-68
2022/02/07 14:46:33;;;;;;;12.07;2.97;;;;;;;;;;5046415;28;20185;-68
2022/02/07 14:48:59;;;;;;;16.67;2.67;;;;;;;;;;5039851;28;20308;-67
2022/02/07 14:51:26;;;;;;;16.23;2.97;;;;;;;;;;5048662;28;20234;-67
2022/02/07 14:53:51;;;;;;;12.00;1.60;;;;;;;;;;5041084;28;20190;-67
2022/02/07 14:56:17;;;;;;;10.17;1.63;;;;;;;;;;5046343;28;20634;-68
2022/02/07 14:58:42;;;;;;;12.80;1.77;;;;;;;;;;5044114;28;20265;-68
2022/02/07 15:01:08;;;;;;;13.97;1.80;;;;;;;;;;5045652;28;20293;-68
2022/02/07 15:03:34;;;;;;;11.93;1.63;;;;;;;;;;5045760;28;20311;-68
2022/02/07 15:05:59;;;;;;;14.93;3.03;;;;;;;;;;5050517;28;20182;-68
2022/02/07 15:08:27;;;;;;;10.73;1.30;;;;;;;;;;5040619;28;20188;-68
2022/02/07 15:10:53;;;;;;;7.67;1.63;;;;;;;;;;5041937;28;20189;-68
2022/02/07 15:13:20;;;;;;;9.23;1.53;;;;;;;;;;5047582;28;20613;-68
2022/02/07 15:15:45;;;;;;;8.07;1.23;;;;;;;;;;5052322;28;20205;-67
2022/02/07 15:18:11;;;;;;;11.30;1.30;;;;;;;;;;5045349;28;20191;-66
2022/02/07 15:20:38;;;;;;;11.23;1.43;;;;;;;;;;5045467;28;20558;-67
2022/02/07 15:23:05;;;;;;;8.17;1.50;;;;;;;;;;5041834;28;20308;-67
2022/02/07 15:25:31;;;;;;;7.97;1.37;;;;;;;;;;5048567;28;20189;-67
2022/02/07 15:28:04;;;;;;;7.23;1.43;;;;;;;;;;5043428;28;20186;-67
2022/02/07 15:30:35;;;;;;;8.00;1.23;;;;;;;;;;5043364;28;20204;-67
2022/02/07 15:33:01;;;;;;;11.23;1.70;;;;;;;;;;5049709;28;20203;-68
2022/02/07 15:35:27;;;;;;;11.77;2.67;;;;;;;;;;5043308;28;20204;-67
2022/02/07 15:37:53;;;;;;;12.23;1.60;;;;;;;;;;5047285;28;20178;-67
2022/02/07 15:40:18;;;;;;;9.93;1.70;;;;;;;;;;5035289;28;20176;-67
2022/02/07 15:42:44;;;;;;;12.60;1.50;;;;;;;;;;5036596;28;20199;-67
2022/02/07 15:45:11;;;;;;;9.60;1.53;;;;;;;;;;5042848;28;20276;-67
2022/02/07 15:47:38;;;;;;;13.10;1.77;;;;;;;;;;5039303;28;20226;-67
2022/02/07 15:50:10;;;;;;;6.07;1.37;;;;;;;;;;5040677;28;20555;-67
2022/02/07 15:52:36;;;;;;;12.57;2.00;;;;;;;;;;5033434;28;20667;-68
2022/02/07 15:55:02;;;;;;;11.27;1.53;;;;;;;;;;5039389;28;20200;-67
2022/02/07 15:57:28;;;;;;;6.13;1.70;;;;;;;;;;5044482;28;20685;-67
2022/02/07 15:59:53;;;;;;;11.33;1.37;;;;;;;;;;5043100;28;20281;-68
2022/02/07 16:02:19;;;;;;;12.00;1.60;;;;;;;;;;5039484;28;20595;-67
2022/02/07 16:04:45;;;;;;;12.53;1.93;;;;;;;;;;5035359;28;20584;-67
2022/02/07 16:07:11;;;;;;;8.27;1.47;;;;;;;;;;5039224;28;20188;-67
2022/02/07 16:09:41;;;;;;;8.80;1.50;;;;;;;;;;5041074;28;20189;-68
2022/02/07 16:12:13;;;;;;;9.13;1.73;;;;;;;;;;5041365;28;20268;-66
2022/02/07 16:14:39;;;;;;;10.97;1.43;;;;;;;;;;5044036;28;20211;-67
2022/02/07 16:17:04;;;;;;;9.93;2.23;;;;;;;;;;5041477;28;20209;-67
2022/02/07 16:19:30;;;;;;;13.03;1.77;;;;;;;;;;5058345;28;20190;-68
2022/02/07 16:21:56;;;;;;;8.67;2.10;;;;;;;;;;5043222;28;20186;-67
2022/02/07 16:24:22;;;;;;;12.27;1.60;;;;;;;;;;5047599;28;20189;-67
2022/02/07 16:26:49;;;;;;;12.77;1.50;;;;;;;;;;5043492;28;20784;-67
2022/02/07 16:29:15;;;;;;;8.63;1.60;;;;;;;;;;5054010;28;20189;-67
2022/02/07 16:31:40;;;;;;;15.30;2.23;;;;;;;;;;5046316;28;20205;-68
2022/02/07 16:34:15;;;;;;;6.63;1.50;;;;;;;;;;5046208;28;20748;-66
2022/02/07 16:36:40;;;;;;;12.77;2.00;;;;;;;;;;5055738;28;20222;-67
2022/02/07 16:39:06;;;;;;;10.03;1.73;;;;;;;;;;5051622;28;20190;-67
2022/02/07 16:41:35;;;;;;;10.43;1.80;;;;;;;;;;5050594;28;20269;-67
2022/02/07 16:44:02;;;;;;;9.33;1.80;;;;;;;;;;5045459;28;20231;-67
2022/02/07 16:48:57;;;;;;;8.17;1.70;;;;;;;;;;5047005;28;20657;-67
2022/02/07 16:51:23;;;;;;;11.63;2.07;;;;;;;;;;5050982;28;20682;-67
2022/02/07 16:53:49;;;;;;;10.13;1.97;;;;;;;;;;5045884;28;20186;-67
2022/02/07 16:56:15;;;;;;;14.50;1.93;;;;;;;;;;5049331;28;20194;-67
2022/02/07 16:58:40;;;;;;;11.07;2.10;;;;;;;;;;5043916;28;21068;-67
2022/02/07 17:01:06;;;;;;;11.87;1.93;;;;;;;;;;5052496;28;20177;-67
2022/02/07 17:03:31;;;;;;;13.17;2.13;;;;;;;;;;5044296;28;20262;-66